sensor_id;sensor_type;location;lat;lon;timestamp;P1;durP1;ratioP1;P2;durP2;ratioP2
74789;SDS011;63318;52.406;13.416;2023-05-29T00:00:14;10.20;;;2.90;;
74789;SDS011;63318;52.406;13.416;2023-05-29T00:02:43;8.90;;;3.50;;
74789;SDS011;63318;52.406;13.416;2023-05-29T00:05:11;10.50;;;3.00;;
74789;SDS011;63318;52.406;13.416;2023-05-29T00:07:40;7.90;;;2.60;;
74789;SDS011;63318;52.406;13.416;2023-05-29T00:10:09;7.90;;;2.80;;
74789;SDS011;63318;52.406;13.416;2023-05-29T00:12:38;9.70;;;2.80;;
74789;SDS011;63318;52.406;13.416;2023-05-29T00:15:08;10.30;;;3.10;;
74789;SDS011;63318;52.406;13.416;2023-05-29T00:17:37;8.70;;;3.10;;
74789;SDS011;63318;52.406;13.416;2023-05-29T00:20:06;8.70;;;3.50;;
74789;SDS011;63318;52.406;13.416;2023-05-29T00:22:36;9.60;;;3.00;;
74789;SDS011;63318;52.406;13.416;2023-05-29T00:25:06;7.50;;;3.00;;
74789;SDS011;63318;52.406;13.416;2023-05-29T00:27:35;7.70;;;3.40;;
74789;SDS011;63318;52.406;13.416;2023-05-29T00:30:04;10.10;;;3.70;;
74789;SDS011;63318;52.406;13.416;2023-05-29T00:32:33;7.70;;;3.10;;
74789;SDS011;63318;52.406;13.416;2023-05-29T00:35:01;6.30;;;3.10;;
74789;SDS011;63318;52.406;13.416;2023-05-29T00:37:30;8.30;;;2.80;;
74789;SDS011;63318;52.406;13.416;2023-05-29T00:39:58;8.40;;;2.80;;
74789;SDS011;63318;52.406;13.416;2023-05-29T00:42:26;10.10;;;2.80;;
74789;SDS011;63318;52.406;13.416;2023-05-29T00:44:55;9.80;;;2.90;;
74789;SDS011;63318;52.406;13.416;2023-05-29T00:47:23;9.00;;;2.90;;
74789;SDS011;63318;52.406;13.416;2023-05-29T00:49:52;10.40;;;3.30;;
74789;SDS011;63318;52.406;13.416;2023-05-29T00:52:21;9.80;;;3.30;;
74789;SDS011;63318;52.406;13.416;2023-05-29T00:54:52;11.30;;;3.20;;
74789;SDS011;63318;52.406;13.416;2023-05-29T00:57:21;8.90;;;3.40;;
74789;SDS011;63318;52.406;13.416;2023-05-29T00:59:50;7.40;;;3.00;;
74789;SDS011;63318;52.406;13.416;2023-05-29T01:02:18;12.20;;;3.50;;
74789;SDS011;63318;52.406;13.416;2023-05-29T01:04:48;7.20;;;3.10;;
74789;SDS011;63318;52.406;13.416;2023-05-29T01:07:16;8.80;;;3.00;;
74789;SDS011;63318;52.406;13.416;2023-05-29T01:09:45;11.20;;;3.40;;
74789;SDS011;63318;52.406;13.416;2023-05-29T01:12:16;8.10;;;2.70;;
74789;SDS011;63318;52.406;13.416;2023-05-29T01:14:57;9.80;;;3.90;;
74789;SDS011;63318;52.406;13.416;2023-05-29T01:17:37;8.40;;;2.60;;
74789;SDS011;63318;52.406;13.416;2023-05-29T01:22:52;7.20;;;2.90;;
74789;SDS011;63318;52.406;13.416;2023-05-29T01:25:34;11.10;;;3.60;;
74789;SDS011;63318;52.406;13.416;2023-05-29T01:28:25;9.30;;;2.80;;
74789;SDS011;63318;52.406;13.416;2023-05-29T01:30:58;10.20;;;3.20;;
74789;SDS011;63318;52.406;13.416;2023-05-29T01:33:30;10.70;;;3.00;;
74789;SDS011;63318;52.406;13.416;2023-05-29T01:35:58;8.80;;;3.00;;
74789;SDS011;63318;52.406;13.416;2023-05-29T01:38:27;7.10;;;3.00;;
74789;SDS011;63318;52.406;13.416;2023-05-29T01:40:55;9.30;;;3.00;;
74789;SDS011;63318;52.406;13.416;2023-05-29T01:43:24;8.50;;;2.90;;
74789;SDS011;63318;52.406;13.416;2023-05-29T01:45:52;10.10;;;3.20;;
74789;SDS011;63318;52.406;13.416;2023-05-29T01:48:22;8.80;;;2.80;;
74789;SDS011;63318;52.406;13.416;2023-05-29T01:50:51;7.10;;;3.40;;
74789;SDS011;63318;52.406;13.416;2023-05-29T01:53:20;7.90;;;2.90;;
74789;SDS011;63318;52.406;13.416;2023-05-29T01:55:48;8.10;;;3.20;;
74789;SDS011;63318;52.406;13.416;2023-05-29T01:58:17;8.00;;;2.70;;
74789;SDS011;63318;52.406;13.416;2023-05-29T02:00:48;7.10;;;3.00;;
74789;SDS011;63318;52.406;13.416;2023-05-29T02:03:16;9.20;;;2.80;;
74789;SDS011;63318;52.406;13.416;2023-05-29T02:05:44;8.80;;;3.30;;
74789;SDS011;63318;52.406;13.416;2023-05-29T02:08:13;8.50;;;3.10;;
74789;SDS011;63318;52.406;13.416;2023-05-29T02:10:41;5.50;;;2.30;;
74789;SDS011;63318;52.406;13.416;2023-05-29T02:13:10;6.80;;;3.00;;
74789;SDS011;63318;52.406;13.416;2023-05-29T02:15:38;8.40;;;3.00;;
74789;SDS011;63318;52.406;13.416;2023-05-29T02:18:07;7.40;;;2.90;;
74789;SDS011;63318;52.406;13.416;2023-05-29T02:20:36;8.90;;;2.80;;
74789;SDS011;63318;52.406;13.416;2023-05-29T02:23:04;7.40;;;2.70;;
74789;SDS011;63318;52.406;13.416;2023-05-29T02:25:35;8.50;;;3.00;;
74789;SDS011;63318;52.406;13.416;2023-05-29T02:28:03;8.70;;;3.30;;
74789;SDS011;63318;52.406;13.416;2023-05-29T02:30:31;8.50;;;3.00;;
74789;SDS011;63318;52.406;13.416;2023-05-29T02:33:01;8.00;;;2.50;;
74789;SDS011;63318;52.406;13.416;2023-05-29T02:35:30;6.80;;;2.80;;
74789;SDS011;63318;52.406;13.416;2023-05-29T02:37:58;8.80;;;2.90;;
74789;SDS011;63318;52.406;13.416;2023-05-29T02:40:26;7.40;;;2.60;;
74789;SDS011;63318;52.406;13.416;2023-05-29T02:42:54;7.20;;;2.70;;
74789;SDS011;63318;52.406;13.416;2023-05-29T02:45:22;9.10;;;2.90;;
74789;SDS011;63318;52.406;13.416;2023-05-29T02:47:51;8.10;;;3.00;;
74789;SDS011;63318;52.406;13.416;2023-05-29T02:50:19;5.10;;;2.20;;
74789;SDS011;63318;52.406;13.416;2023-05-29T02:52:47;8.40;;;2.90;;
74789;SDS011;63318;52.406;13.416;2023-05-29T02:55:16;9.00;;;3.00;;
74789;SDS011;63318;52.406;13.416;2023-05-29T02:57:44;6.60;;;2.50;;
74789;SDS011;63318;52.406;13.416;2023-05-29T03:00:13;7.60;;;2.90;;
74789;SDS011;63318;52.406;13.416;2023-05-29T03:02:41;7.10;;;3.10;;
74789;SDS011;63318;52.406;13.416;2023-05-29T03:05:10;7.00;;;2.70;;
74789;SDS011;63318;52.406;13.416;2023-05-29T03:07:38;10.60;;;2.90;;
74789;SDS011;63318;52.406;13.416;2023-05-29T03:10:07;7.10;;;2.80;;
74789;SDS011;63318;52.406;13.416;2023-05-29T03:12:35;6.90;;;3.10;;
74789;SDS011;63318;52.406;13.416;2023-05-29T03:15:05;10.80;;;3.20;;
74789;SDS011;63318;52.406;13.416;2023-05-29T03:17:34;7.50;;;2.80;;
74789;SDS011;63318;52.406;13.416;2023-05-29T03:20:02;8.50;;;2.80;;
74789;SDS011;63318;52.406;13.416;2023-05-29T03:22:32;9.00;;;2.50;;
74789;SDS011;63318;52.406;13.416;2023-05-29T03:25:01;8.30;;;3.00;;
74789;SDS011;63318;52.406;13.416;2023-05-29T03:27:30;6.30;;;2.90;;
74789;SDS011;63318;52.406;13.416;2023-05-29T03:29:58;8.50;;;2.90;;
74789;SDS011;63318;52.406;13.416;2023-05-29T03:32:27;6.80;;;2.80;;
74789;SDS011;63318;52.406;13.416;2023-05-29T03:34:55;6.50;;;2.80;;
74789;SDS011;63318;52.406;13.416;2023-05-29T03:37:23;9.30;;;3.20;;
74789;SDS011;63318;52.406;13.416;2023-05-29T03:39:52;9.20;;;2.80;;
74789;SDS011;63318;52.406;13.416;2023-05-29T03:42:20;10.80;;;2.60;;
74789;SDS011;63318;52.406;13.416;2023-05-29T03:44:48;9.70;;;3.00;;
74789;SDS011;63318;52.406;13.416;2023-05-29T03:47:16;7.70;;;2.90;;
74789;SDS011;63318;52.406;13.416;2023-05-29T03:49:45;10.50;;;3.10;;
74789;SDS011;63318;52.406;13.416;2023-05-29T03:52:13;6.10;;;3.00;;
74789;SDS011;63318;52.406;13.416;2023-05-29T03:54:41;9.30;;;3.50;;
74789;SDS011;63318;52.406;13.416;2023-05-29T03:57:09;6.50;;;2.80;;
74789;SDS011;63318;52.406;13.416;2023-05-29T03:59:38;11.90;;;2.60;;
74789;SDS011;63318;52.406;13.416;2023-05-29T04:02:06;7.20;;;2.70;;
74789;SDS011;63318;52.406;13.416;2023-05-29T04:04:34;7.10;;;2.80;;
74789;SDS011;63318;52.406;13.416;2023-05-29T04:07:03;8.40;;;2.80;;
74789;SDS011;63318;52.406;13.416;2023-05-29T04:09:31;9.10;;;3.00;;
74789;SDS011;63318;52.406;13.416;2023-05-29T04:12:00;6.70;;;3.40;;
74789;SDS011;63318;52.406;13.416;2023-05-29T04:14:29;9.50;;;3.70;;
74789;SDS011;63318;52.406;13.416;2023-05-29T04:16:57;10.00;;;2.90;;
74789;SDS011;63318;52.406;13.416;2023-05-29T04:19:25;12.60;;;3.40;;
74789;SDS011;63318;52.406;13.416;2023-05-29T04:21:54;11.10;;;4.00;;
74789;SDS011;63318;52.406;13.416;2023-05-29T04:24:22;9.60;;;2.90;;
74789;SDS011;63318;52.406;13.416;2023-05-29T04:26:50;8.70;;;3.10;;
74789;SDS011;63318;52.406;13.416;2023-05-29T04:29:19;9.10;;;3.50;;
74789;SDS011;63318;52.406;13.416;2023-05-29T04:31:47;9.40;;;2.80;;
74789;SDS011;63318;52.406;13.416;2023-05-29T04:34:16;7.30;;;3.10;;
74789;SDS011;63318;52.406;13.416;2023-05-29T04:36:44;6.40;;;3.00;;
74789;SDS011;63318;52.406;13.416;2023-05-29T04:39:12;9.10;;;2.90;;
74789;SDS011;63318;52.406;13.416;2023-05-29T04:41:41;8.70;;;2.80;;
74789;SDS011;63318;52.406;13.416;2023-05-29T04:44:10;10.00;;;2.90;;
74789;SDS011;63318;52.406;13.416;2023-05-29T04:46:38;10.40;;;3.10;;
74789;SDS011;63318;52.406;13.416;2023-05-29T04:49:06;8.40;;;2.70;;
74789;SDS011;63318;52.406;13.416;2023-05-29T04:51:34;6.30;;;2.30;;
74789;SDS011;63318;52.406;13.416;2023-05-29T04:54:03;8.70;;;2.60;;
74789;SDS011;63318;52.406;13.416;2023-05-29T04:56:31;9.50;;;2.70;;
74789;SDS011;63318;52.406;13.416;2023-05-29T04:58:59;9.00;;;2.20;;
74789;SDS011;63318;52.406;13.416;2023-05-29T05:01:28;6.90;;;2.40;;
74789;SDS011;63318;52.406;13.416;2023-05-29T05:03:56;5.40;;;2.50;;
74789;SDS011;63318;52.406;13.416;2023-05-29T05:06:24;6.40;;;2.10;;
74789;SDS011;63318;52.406;13.416;2023-05-29T05:08:52;4.60;;;2.30;;
74789;SDS011;63318;52.406;13.416;2023-05-29T05:11:21;6.60;;;2.10;;
74789;SDS011;63318;52.406;13.416;2023-05-29T05:13:50;5.00;;;2.40;;
74789;SDS011;63318;52.406;13.416;2023-05-29T05:16:18;5.80;;;2.20;;
74789;SDS011;63318;52.406;13.416;2023-05-29T05:18:46;5.20;;;2.40;;
74789;SDS011;63318;52.406;13.416;2023-05-29T05:21:15;8.00;;;2.50;;
74789;SDS011;63318;52.406;13.416;2023-05-29T05:23:45;10.70;;;2.10;;
74789;SDS011;63318;52.406;13.416;2023-05-29T05:26:14;4.90;;;2.20;;
74789;SDS011;63318;52.406;13.416;2023-05-29T05:28:43;5.70;;;2.70;;
74789;SDS011;63318;52.406;13.416;2023-05-29T05:31:11;7.10;;;2.50;;
74789;SDS011;63318;52.406;13.416;2023-05-29T05:33:40;6.20;;;2.00;;
74789;SDS011;63318;52.406;13.416;2023-05-29T05:36:09;6.80;;;2.00;;
74789;SDS011;63318;52.406;13.416;2023-05-29T05:38:37;4.80;;;2.00;;
74789;SDS011;63318;52.406;13.416;2023-05-29T05:41:06;5.00;;;2.00;;
74789;SDS011;63318;52.406;13.416;2023-05-29T05:43:36;4.20;;;1.80;;
74789;SDS011;63318;52.406;13.416;2023-05-29T05:46:04;5.30;;;1.90;;
74789;SDS011;63318;52.406;13.416;2023-05-29T05:48:33;5.10;;;2.40;;
74789;SDS011;63318;52.406;13.416;2023-05-29T05:51:01;4.10;;;1.80;;
74789;SDS011;63318;52.406;13.416;2023-05-29T05:53:30;5.50;;;1.80;;
74789;SDS011;63318;52.406;13.416;2023-05-29T05:55:59;5.60;;;2.10;;
74789;SDS011;63318;52.406;13.416;2023-05-29T05:58:27;6.70;;;1.90;;
74789;SDS011;63318;52.406;13.416;2023-05-29T06:00:56;5.10;;;1.70;;
74789;SDS011;63318;52.406;13.416;2023-05-29T06:03:24;4.80;;;1.80;;
74789;SDS011;63318;52.406;13.416;2023-05-29T06:05:53;6.30;;;1.60;;
74789;SDS011;63318;52.406;13.416;2023-05-29T06:08:21;4.00;;;1.50;;
74789;SDS011;63318;52.406;13.416;2023-05-29T06:10:49;4.90;;;2.30;;
74789;SDS011;63318;52.406;13.416;2023-05-29T06:13:18;5.90;;;1.90;;
74789;SDS011;63318;52.406;13.416;2023-05-29T06:15:47;5.20;;;1.80;;
74789;SDS011;63318;52.406;13.416;2023-05-29T06:18:16;4.60;;;1.80;;
74789;SDS011;63318;52.406;13.416;2023-05-29T06:20:44;7.60;;;2.20;;
74789;SDS011;63318;52.406;13.416;2023-05-29T06:23:13;5.20;;;2.30;;
74789;SDS011;63318;52.406;13.416;2023-05-29T06:25:42;4.00;;;1.50;;
74789;SDS011;63318;52.406;13.416;2023-05-29T06:28:11;6.60;;;1.70;;
74789;SDS011;63318;52.406;13.416;2023-05-29T06:30:39;4.40;;;1.70;;
74789;SDS011;63318;52.406;13.416;2023-05-29T06:33:08;6.00;;;1.60;;
74789;SDS011;63318;52.406;13.416;2023-05-29T06:35:36;5.90;;;2.20;;
74789;SDS011;63318;52.406;13.416;2023-05-29T06:38:05;4.60;;;1.70;;
74789;SDS011;63318;52.406;13.416;2023-05-29T06:40:33;4.80;;;2.10;;
74789;SDS011;63318;52.406;13.416;2023-05-29T06:43:02;5.60;;;1.80;;
74789;SDS011;63318;52.406;13.416;2023-05-29T06:45:31;4.30;;;1.60;;
74789;SDS011;63318;52.406;13.416;2023-05-29T06:47:59;4.40;;;1.50;;
74789;SDS011;63318;52.406;13.416;2023-05-29T06:50:28;4.10;;;1.90;;
74789;SDS011;63318;52.406;13.416;2023-05-29T06:52:56;5.20;;;1.40;;
74789;SDS011;63318;52.406;13.416;2023-05-29T06:55:26;4.60;;;1.80;;
74789;SDS011;63318;52.406;13.416;2023-05-29T06:57:55;5.00;;;1.60;;
74789;SDS011;63318;52.406;13.416;2023-05-29T07:00:23;3.60;;;1.60;;
74789;SDS011;63318;52.406;13.416;2023-05-29T07:02:53;7.40;;;2.20;;
74789;SDS011;63318;52.406;13.416;2023-05-29T07:05:21;4.40;;;1.60;;
74789;SDS011;63318;52.406;13.416;2023-05-29T07:07:50;4.80;;;1.40;;
74789;SDS011;63318;52.406;13.416;2023-05-29T07:10:19;4.10;;;1.70;;
74789;SDS011;63318;52.406;13.416;2023-05-29T07:12:48;5.50;;;2.10;;
74789;SDS011;63318;52.406;13.416;2023-05-29T07:15:18;7.00;;;2.10;;
74789;SDS011;63318;52.406;13.416;2023-05-29T07:17:46;4.30;;;1.90;;
74789;SDS011;63318;52.406;13.416;2023-05-29T07:20:15;4.50;;;1.70;;
74789;SDS011;63318;52.406;13.416;2023-05-29T07:22:44;5.40;;;1.70;;
74789;SDS011;63318;52.406;13.416;2023-05-29T07:25:12;5.20;;;1.60;;
74789;SDS011;63318;52.406;13.416;2023-05-29T07:27:40;4.10;;;1.50;;
74789;SDS011;63318;52.406;13.416;2023-05-29T07:30:10;6.60;;;1.80;;
74789;SDS011;63318;52.406;13.416;2023-05-29T07:32:39;5.80;;;1.80;;
74789;SDS011;63318;52.406;13.416;2023-05-29T07:35:08;3.80;;;1.60;;
74789;SDS011;63318;52.406;13.416;2023-05-29T07:37:36;4.60;;;1.70;;
74789;SDS011;63318;52.406;13.416;2023-05-29T07:40:06;3.60;;;1.70;;
74789;SDS011;63318;52.406;13.416;2023-05-29T07:42:35;4.60;;;1.80;;
74789;SDS011;63318;52.406;13.416;2023-05-29T07:45:04;5.60;;;1.60;;
74789;SDS011;63318;52.406;13.416;2023-05-29T07:47:34;5.60;;;1.80;;
74789;SDS011;63318;52.406;13.416;2023-05-29T07:50:02;6.80;;;1.70;;
74789;SDS011;63318;52.406;13.416;2023-05-29T07:52:31;4.00;;;1.70;;
74789;SDS011;63318;52.406;13.416;2023-05-29T07:54:59;3.90;;;1.30;;
74789;SDS011;63318;52.406;13.416;2023-05-29T07:57:28;4.30;;;1.60;;
74789;SDS011;63318;52.406;13.416;2023-05-29T07:59:57;3.10;;;1.30;;
74789;SDS011;63318;52.406;13.416;2023-05-29T08:02:25;3.70;;;1.50;;
74789;SDS011;63318;52.406;13.416;2023-05-29T08:04:53;4.60;;;1.60;;
74789;SDS011;63318;52.406;13.416;2023-05-29T08:07:22;4.30;;;1.50;;
74789;SDS011;63318;52.406;13.416;2023-05-29T08:09:50;4.50;;;1.40;;
74789;SDS011;63318;52.406;13.416;2023-05-29T08:12:19;6.10;;;1.80;;
74789;SDS011;63318;52.406;13.416;2023-05-29T08:14:47;4.80;;;1.70;;
74789;SDS011;63318;52.406;13.416;2023-05-29T08:17:15;5.10;;;2.10;;
74789;SDS011;63318;52.406;13.416;2023-05-29T08:19:44;4.00;;;1.60;;
74789;SDS011;63318;52.406;13.416;2023-05-29T08:22:14;4.90;;;1.70;;
74789;SDS011;63318;52.406;13.416;2023-05-29T08:24:43;3.60;;;1.80;;
74789;SDS011;63318;52.406;13.416;2023-05-29T08:27:12;4.10;;;1.50;;
74789;SDS011;63318;52.406;13.416;2023-05-29T08:29:41;5.20;;;1.70;;
74789;SDS011;63318;52.406;13.416;2023-05-29T08:32:09;5.90;;;1.60;;
74789;SDS011;63318;52.406;13.416;2023-05-29T08:34:38;6.60;;;1.70;;
74789;SDS011;63318;52.406;13.416;2023-05-29T08:37:07;5.40;;;2.10;;
74789;SDS011;63318;52.406;13.416;2023-05-29T08:39:36;5.40;;;1.80;;
74789;SDS011;63318;52.406;13.416;2023-05-29T08:42:07;4.50;;;1.80;;
74789;SDS011;63318;52.406;13.416;2023-05-29T08:44:39;4.40;;;1.70;;
74789;SDS011;63318;52.406;13.416;2023-05-29T08:47:11;3.30;;;1.50;;
74789;SDS011;63318;52.406;13.416;2023-05-29T08:49:42;4.90;;;1.80;;
74789;SDS011;63318;52.406;13.416;2023-05-29T08:52:13;7.20;;;2.00;;
74789;SDS011;63318;52.406;13.416;2023-05-29T08:54:46;4.80;;;1.70;;
74789;SDS011;63318;52.406;13.416;2023-05-29T08:57:15;5.50;;;2.10;;
74789;SDS011;63318;52.406;13.416;2023-05-29T08:59:44;6.50;;;2.20;;
74789;SDS011;63318;52.406;13.416;2023-05-29T09:02:13;5.20;;;1.80;;
74789;SDS011;63318;52.406;13.416;2023-05-29T09:04:42;4.70;;;2.00;;
74789;SDS011;63318;52.406;13.416;2023-05-29T09:07:12;6.20;;;2.00;;
74789;SDS011;63318;52.406;13.416;2023-05-29T09:09:41;5.60;;;2.00;;
74789;SDS011;63318;52.406;13.416;2023-05-29T09:12:11;4.50;;;1.80;;
74789;SDS011;63318;52.406;13.416;2023-05-29T09:14:40;4.00;;;1.70;;
74789;SDS011;63318;52.406;13.416;2023-05-29T09:17:10;5.50;;;2.00;;
74789;SDS011;63318;52.406;13.416;2023-05-29T09:19:39;5.20;;;1.90;;
74789;SDS011;63318;52.406;13.416;2023-05-29T09:22:10;6.10;;;1.90;;
74789;SDS011;63318;52.406;13.416;2023-05-29T09:24:40;4.10;;;1.80;;
74789;SDS011;63318;52.406;13.416;2023-05-29T09:27:12;6.10;;;2.00;;
74789;SDS011;63318;52.406;13.416;2023-05-29T09:29:41;4.90;;;2.10;;
74789;SDS011;63318;52.406;13.416;2023-05-29T09:32:10;5.80;;;2.20;;
74789;SDS011;63318;52.406;13.416;2023-05-29T09:34:39;5.30;;;2.10;;
74789;SDS011;63318;52.406;13.416;2023-05-29T09:37:08;7.20;;;2.20;;
74789;SDS011;63318;52.406;13.416;2023-05-29T09:39:46;4.80;;;1.90;;
74789;SDS011;63318;52.406;13.416;2023-05-29T09:42:15;4.30;;;2.10;;
74789;SDS011;63318;52.406;13.416;2023-05-29T09:44:44;5.60;;;2.50;;
74789;SDS011;63318;52.406;13.416;2023-05-29T09:47:16;4.40;;;2.10;;
74789;SDS011;63318;52.406;13.416;2023-05-29T09:49:45;3.80;;;2.00;;
74789;SDS011;63318;52.406;13.416;2023-05-29T09:52:14;5.30;;;2.30;;
74789;SDS011;63318;52.406;13.416;2023-05-29T09:54:47;5.50;;;1.90;;
74789;SDS011;63318;52.406;13.416;2023-05-29T09:57:16;4.00;;;1.90;;
74789;SDS011;63318;52.406;13.416;2023-05-29T09:59:45;5.50;;;2.20;;
74789;SDS011;63318;52.406;13.416;2023-05-29T10:02:13;4.90;;;2.00;;
74789;SDS011;63318;52.406;13.416;2023-05-29T10:04:42;4.40;;;2.20;;
74789;SDS011;63318;52.406;13.416;2023-05-29T10:07:12;6.90;;;2.30;;
74789;SDS011;63318;52.406;13.416;2023-05-29T10:09:52;5.10;;;2.10;;
74789;SDS011;63318;52.406;13.416;2023-05-29T10:12:25;4.90;;;2.10;;
74789;SDS011;63318;52.406;13.416;2023-05-29T10:14:56;5.00;;;2.30;;
74789;SDS011;63318;52.406;13.416;2023-05-29T10:17:28;5.80;;;2.50;;
74789;SDS011;63318;52.406;13.416;2023-05-29T10:20:00;4.80;;;2.30;;
74789;SDS011;63318;52.406;13.416;2023-05-29T10:22:32;5.90;;;2.70;;
74789;SDS011;63318;52.406;13.416;2023-05-29T10:25:03;4.80;;;2.10;;
74789;SDS011;63318;52.406;13.416;2023-05-29T10:27:32;5.10;;;2.10;;
74789;SDS011;63318;52.406;13.416;2023-05-29T10:30:04;5.90;;;2.20;;
74789;SDS011;63318;52.406;13.416;2023-05-29T10:32:43;4.90;;;1.90;;
74789;SDS011;63318;52.406;13.416;2023-05-29T10:35:25;7.60;;;2.10;;
74789;SDS011;63318;52.406;13.416;2023-05-29T10:38:09;5.20;;;2.00;;
74789;SDS011;63318;52.406;13.416;2023-05-29T10:40:39;7.20;;;2.50;;
74789;SDS011;63318;52.406;13.416;2023-05-29T10:43:07;5.90;;;2.10;;
74789;SDS011;63318;52.406;13.416;2023-05-29T10:45:57;5.90;;;2.10;;
74789;SDS011;63318;52.406;13.416;2023-05-29T10:48:39;5.00;;;2.30;;
74789;SDS011;63318;52.406;13.416;2023-05-29T10:51:10;6.10;;;2.40;;
74789;SDS011;63318;52.406;13.416;2023-05-29T10:53:52;5.20;;;2.00;;
74789;SDS011;63318;52.406;13.416;2023-05-29T10:56:28;4.80;;;1.90;;
74789;SDS011;63318;52.406;13.416;2023-05-29T10:58:57;5.20;;;2.10;;
74789;SDS011;63318;52.406;13.416;2023-05-29T11:01:27;5.80;;;2.20;;
74789;SDS011;63318;52.406;13.416;2023-05-29T11:06:54;4.60;;;2.10;;
74789;SDS011;63318;52.406;13.416;2023-05-29T11:09:29;4.90;;;2.70;;
74789;SDS011;63318;52.406;13.416;2023-05-29T11:12:15;7.40;;;2.50;;
74789;SDS011;63318;52.406;13.416;2023-05-29T11:14:53;9.20;;;3.50;;
74789;SDS011;63318;52.406;13.416;2023-05-29T11:17:34;8.10;;;2.90;;
74789;SDS011;63318;52.406;13.416;2023-05-29T11:20:15;6.10;;;2.10;;
74789;SDS011;63318;52.406;13.416;2023-05-29T11:23:04;6.40;;;3.10;;
74789;SDS011;63318;52.406;13.416;2023-05-29T11:25:33;7.30;;;3.20;;
74789;SDS011;63318;52.406;13.416;2023-05-29T11:28:04;6.40;;;3.40;;
74789;SDS011;63318;52.406;13.416;2023-05-29T11:30:41;7.30;;;4.20;;
74789;SDS011;63318;52.406;13.416;2023-05-29T11:33:17;7.00;;;2.80;;
74789;SDS011;63318;52.406;13.416;2023-05-29T11:35:49;4.60;;;1.70;;
74789;SDS011;63318;52.406;13.416;2023-05-29T11:38:21;6.30;;;2.20;;
74789;SDS011;63318;52.406;13.416;2023-05-29T11:40:50;4.90;;;2.20;;
74789;SDS011;63318;52.406;13.416;2023-05-29T11:43:18;5.20;;;1.90;;
74789;SDS011;63318;52.406;13.416;2023-05-29T11:45:47;5.30;;;2.50;;
74789;SDS011;63318;52.406;13.416;2023-05-29T11:48:16;4.30;;;2.10;;
74789;SDS011;63318;52.406;13.416;2023-05-29T11:50:44;5.10;;;2.50;;
74789;SDS011;63318;52.406;13.416;2023-05-29T11:53:12;4.70;;;2.00;;
74789;SDS011;63318;52.406;13.416;2023-05-29T11:55:41;4.50;;;1.80;;
74789;SDS011;63318;52.406;13.416;2023-05-29T11:58:09;4.10;;;1.90;;
74789;SDS011;63318;52.406;13.416;2023-05-29T12:00:38;3.80;;;1.80;;
74789;SDS011;63318;52.406;13.416;2023-05-29T12:03:07;5.30;;;2.50;;
74789;SDS011;63318;52.406;13.416;2023-05-29T12:05:45;12.50;;;6.60;;
74789;SDS011;63318;52.406;13.416;2023-05-29T12:08:15;16.70;;;9.20;;
74789;SDS011;63318;52.406;13.416;2023-05-29T12:10:50;5.40;;;2.40;;
74789;SDS011;63318;52.406;13.416;2023-05-29T12:13:19;7.60;;;2.50;;
74789;SDS011;63318;52.406;13.416;2023-05-29T12:15:48;6.40;;;2.90;;
74789;SDS011;63318;52.406;13.416;2023-05-29T12:18:18;9.90;;;4.90;;
74789;SDS011;63318;52.406;13.416;2023-05-29T12:20:47;5.80;;;2.50;;
74789;SDS011;63318;52.406;13.416;2023-05-29T12:23:16;4.80;;;2.50;;
74789;SDS011;63318;52.406;13.416;2023-05-29T12:25:46;4.10;;;2.00;;
74789;SDS011;63318;52.406;13.416;2023-05-29T12:28:17;6.20;;;2.20;;
74789;SDS011;63318;52.406;13.416;2023-05-29T12:30:47;5.20;;;2.30;;
74789;SDS011;63318;52.406;13.416;2023-05-29T12:33:25;4.70;;;2.00;;
74789;SDS011;63318;52.406;13.416;2023-05-29T12:36:00;4.10;;;1.80;;
74789;SDS011;63318;52.406;13.416;2023-05-29T12:38:30;6.30;;;2.10;;
74789;SDS011;63318;52.406;13.416;2023-05-29T12:40:58;4.50;;;1.90;;
74789;SDS011;63318;52.406;13.416;2023-05-29T12:43:26;4.40;;;2.20;;
74789;SDS011;63318;52.406;13.416;2023-05-29T12:45:55;6.10;;;2.40;;
74789;SDS011;63318;52.406;13.416;2023-05-29T12:48:27;4.80;;;2.10;;
74789;SDS011;63318;52.406;13.416;2023-05-29T12:50:57;4.40;;;2.30;;
74789;SDS011;63318;52.406;13.416;2023-05-29T12:53:30;5.70;;;2.50;;
74789;SDS011;63318;52.406;13.416;2023-05-29T12:55:59;5.60;;;2.00;;
74789;SDS011;63318;52.406;13.416;2023-05-29T12:58:27;6.90;;;3.40;;
74789;SDS011;63318;52.406;13.416;2023-05-29T13:00:55;6.50;;;2.40;;
74789;SDS011;63318;52.406;13.416;2023-05-29T13:03:24;5.10;;;2.10;;
74789;SDS011;63318;52.406;13.416;2023-05-29T13:05:52;6.60;;;2.70;;
74789;SDS011;63318;52.406;13.416;2023-05-29T13:08:20;5.40;;;2.10;;
74789;SDS011;63318;52.406;13.416;2023-05-29T13:10:49;4.90;;;2.10;;
74789;SDS011;63318;52.406;13.416;2023-05-29T13:13:17;5.90;;;2.10;;
74789;SDS011;63318;52.406;13.416;2023-05-29T13:15:45;5.20;;;2.30;;
74789;SDS011;63318;52.406;13.416;2023-05-29T13:18:14;4.30;;;1.70;;
74789;SDS011;63318;52.406;13.416;2023-05-29T13:20:42;4.30;;;1.90;;
74789;SDS011;63318;52.406;13.416;2023-05-29T13:23:10;4.50;;;1.90;;
74789;SDS011;63318;52.406;13.416;2023-05-29T13:25:39;4.40;;;1.80;;
74789;SDS011;63318;52.406;13.416;2023-05-29T13:28:07;5.70;;;2.10;;
74789;SDS011;63318;52.406;13.416;2023-05-29T13:30:35;4.10;;;2.00;;
74789;SDS011;63318;52.406;13.416;2023-05-29T13:33:07;5.30;;;2.20;;
74789;SDS011;63318;52.406;13.416;2023-05-29T13:35:35;4.00;;;2.00;;
74789;SDS011;63318;52.406;13.416;2023-05-29T13:38:03;4.40;;;2.00;;
74789;SDS011;63318;52.406;13.416;2023-05-29T13:40:31;6.40;;;2.10;;
74789;SDS011;63318;52.406;13.416;2023-05-29T13:42:59;5.30;;;2.10;;
74789;SDS011;63318;52.406;13.416;2023-05-29T13:45:28;5.70;;;2.00;;
74789;SDS011;63318;52.406;13.416;2023-05-29T13:47:56;5.70;;;2.00;;
74789;SDS011;63318;52.406;13.416;2023-05-29T13:50:24;6.60;;;2.00;;
74789;SDS011;63318;52.406;13.416;2023-05-29T13:52:53;4.60;;;1.90;;
74789;SDS011;63318;52.406;13.416;2023-05-29T13:55:22;5.70;;;2.20;;
74789;SDS011;63318;52.406;13.416;2023-05-29T13:57:50;4.40;;;1.90;;
74789;SDS011;63318;52.406;13.416;2023-05-29T14:00:19;5.20;;;2.20;;
74789;SDS011;63318;52.406;13.416;2023-05-29T14:02:48;7.70;;;2.10;;
74789;SDS011;63318;52.406;13.416;2023-05-29T14:05:16;6.30;;;2.20;;
74789;SDS011;63318;52.406;13.416;2023-05-29T14:07:44;5.40;;;1.90;;
74789;SDS011;63318;52.406;13.416;2023-05-29T14:10:15;5.90;;;2.20;;
74789;SDS011;63318;52.406;13.416;2023-05-29T14:12:46;5.30;;;2.30;;
74789;SDS011;63318;52.406;13.416;2023-05-29T14:15:14;5.50;;;2.20;;
74789;SDS011;63318;52.406;13.416;2023-05-29T14:17:42;4.30;;;1.70;;
74789;SDS011;63318;52.406;13.416;2023-05-29T14:20:11;6.80;;;2.00;;
74789;SDS011;63318;52.406;13.416;2023-05-29T14:22:39;4.20;;;1.80;;
74789;SDS011;63318;52.406;13.416;2023-05-29T14:25:08;4.70;;;2.10;;
74789;SDS011;63318;52.406;13.416;2023-05-29T14:27:37;5.30;;;2.00;;
74789;SDS011;63318;52.406;13.416;2023-05-29T14:30:06;5.50;;;1.60;;
74789;SDS011;63318;52.406;13.416;2023-05-29T14:32:35;5.70;;;1.90;;
74789;SDS011;63318;52.406;13.416;2023-05-29T14:35:03;5.20;;;2.00;;
74789;SDS011;63318;52.406;13.416;2023-05-29T14:37:32;4.50;;;1.90;;
74789;SDS011;63318;52.406;13.416;2023-05-29T14:40:00;6.20;;;1.80;;
74789;SDS011;63318;52.406;13.416;2023-05-29T14:42:29;6.60;;;1.90;;
74789;SDS011;63318;52.406;13.416;2023-05-29T14:44:57;6.10;;;2.10;;
74789;SDS011;63318;52.406;13.416;2023-05-29T14:47:25;4.50;;;1.80;;
74789;SDS011;63318;52.406;13.416;2023-05-29T14:49:54;6.40;;;1.90;;
74789;SDS011;63318;52.406;13.416;2023-05-29T14:52:22;6.10;;;2.00;;